createdAt,value
2022-11-26T00:01:15.629Z,21.67
2022-11-26T00:03:42.928Z,24.08
2022-11-26T00:06:31.266Z,18.45
2022-11-26T00:08:59.707Z,23.17
2022-11-26T00:11:26.430Z,21.83
2022-11-26T00:13:53.200Z,21.90
2022-11-26T00:16:20.047Z,19.50
2022-11-26T00:18:46.740Z,26.27
2022-11-26T00:21:20.334Z,24.52
2022-11-26T00:23:47.352Z,20.70
2022-11-26T00:26:18.014Z,21.02
2022-11-26T00:28:55.094Z,21.40
2022-11-26T00:31:22.158Z,16.25
2022-11-26T00:33:48.890Z,20.75
2022-11-26T00:36:26.333Z,18.70
2022-11-26T00:39:01.683Z,21.38
2022-11-26T00:41:32.909Z,18.67
2022-11-26T00:43:59.892Z,30.95
2022-11-26T00:46:26.660Z,29.83
2022-11-26T00:48:53.373Z,26.65
2022-11-26T00:51:28.039Z,25.20
2022-11-26T00:54:02.680Z,28.70
2022-11-26T00:56:33.858Z,20.52
2022-11-26T00:59:04.296Z,23.85
2022-11-26T01:01:32.792Z,22.95
2022-11-26T01:03:59.492Z,25.10
2022-11-26T01:06:35.668Z,21.88
2022-11-26T01:09:05.040Z,23.00
2022-11-26T01:11:32.021Z,21.70
2022-11-26T01:14:00.131Z,23.98
2022-11-26T01:16:30.179Z,25.90
2022-11-26T01:19:00.440Z,18.98
2022-11-26T01:21:28.877Z,19.23
2022-11-26T01:23:55.889Z,19.85
2022-11-26T01:26:28.513Z,19.48
2022-11-26T01:31:25.548Z,18.90
2022-11-26T01:33:52.985Z,19.05
2022-11-26T01:36:25.745Z,19.70
2022-11-26T01:38:53.485Z,21.15
2022-11-26T01:41:41.292Z,20.83
2022-11-26T01:44:15.606Z,20.45
2022-11-26T01:46:42.498Z,19.00
2022-11-26T01:49:26.752Z,16.42
2022-11-26T01:52:20.302Z,18.48
2022-11-26T01:54:48.610Z,16.00
2022-11-26T01:57:22.882Z,17.10
2022-11-26T01:59:53.944Z,14.68
2022-11-26T02:02:24.954Z,15.23
2022-11-26T02:05:24.551Z,19.27
2022-11-26T02:07:52.702Z,19.00
2022-11-26T02:10:19.713Z,15.23
2022-11-26T02:12:47.092Z,16.27
2022-11-26T02:15:13.808Z,17.17
2022-11-26T02:17:49.278Z,15.05
2022-11-26T02:20:37.891Z,17.88
2022-11-26T02:23:33.856Z,16.27
2022-11-26T02:26:22.533Z,17.88
2022-11-26T02:29:07.116Z,15.70
2022-11-26T02:31:42.503Z,17.30
2022-11-26T02:34:12.304Z,17.02
2022-11-26T02:36:42.108Z,14.65
2022-11-26T02:39:14.241Z,16.90
2022-11-26T02:41:46.783Z,14.35
2022-11-26T02:44:16.183Z,15.07
2022-11-26T02:46:45.420Z,13.38
2022-11-26T02:49:14.712Z,15.95
2022-11-26T02:51:42.635Z,14.50
2022-11-26T02:54:11.285Z,15.90
2022-11-26T02:56:39.525Z,14.63
2022-11-26T02:59:06.695Z,21.17
2022-11-26T03:01:42.396Z,16.15
2022-11-26T03:04:18.967Z,15.25
2022-11-26T03:06:46.998Z,14.40
2022-11-26T03:09:16.722Z,14.32
2022-11-26T03:11:44.066Z,12.18
2022-11-26T03:14:10.766Z,12.20
2022-11-26T03:16:37.962Z,10.60
2022-11-26T03:19:04.901Z,12.10
2022-11-26T03:21:33.164Z,18.65
2022-11-26T03:23:59.874Z,12.57
2022-11-26T03:26:26.450Z,14.40
2022-11-26T03:28:53.068Z,8.00
2022-11-26T03:31:19.817Z,12.25
2022-11-26T03:33:46.449Z,10.82
2022-11-26T03:36:13.062Z,10.75
2022-11-26T03:38:39.690Z,9.10
2022-11-26T03:41:07.477Z,10.68
2022-11-26T03:43:34.074Z,10.60
2022-11-26T03:46:00.775Z,14.07
2022-11-26T03:48:27.432Z,9.00
2022-11-26T03:50:54.035Z,8.35
2022-11-26T03:53:20.665Z,10.60
2022-11-26T03:55:47.853Z,10.07
2022-11-26T03:58:14.656Z,10.95
2022-11-26T04:00:41.373Z,13.00
2022-11-26T04:03:08.040Z,13.75
2022-11-26T04:05:34.641Z,16.48
2022-11-26T04:08:01.283Z,11.23
2022-11-26T04:10:27.930Z,14.43
2022-11-26T04:12:54.620Z,12.73
2022-11-26T04:15:21.225Z,14.50
2022-11-26T04:17:47.834Z,11.20
2022-11-26T04:20:14.602Z,16.95
2022-11-26T04:22:41.293Z,9.13
2022-11-26T04:25:08.345Z,11.00
2022-11-26T04:27:35.753Z,12.82
2022-11-26T04:30:02.372Z,12.98
2022-11-26T04:32:28.991Z,10.93
2022-11-26T04:34:55.653Z,10.23
2022-11-26T04:37:22.267Z,11.27
2022-11-26T04:39:48.883Z,8.75
2022-11-26T04:42:15.526Z,12.52
2022-11-26T04:44:42.149Z,11.30
2022-11-26T04:47:08.748Z,13.25
2022-11-26T04:49:35.350Z,11.27
2022-11-26T04:52:02.024Z,14.35
2022-11-26T04:54:28.688Z,11.13
2022-11-26T04:56:55.270Z,13.80
2022-11-26T04:59:21.908Z,10.13
2022-11-26T05:01:48.536Z,13.88
2022-11-26T05:04:15.118Z,11.63
2022-11-26T05:06:41.783Z,11.02
2022-11-26T05:09:08.397Z,10.38
2022-11-26T05:11:34.973Z,10.52
2022-11-26T05:14:01.618Z,10.57
2022-11-26T05:16:28.392Z,9.90
2022-11-26T05:18:55.082Z,9.52
2022-11-26T05:21:21.723Z,10.07
2022-11-26T05:23:48.416Z,9.38
2022-11-26T05:26:14.994Z,9.77
2022-11-26T05:28:41.692Z,10.07
2022-11-26T05:31:08.454Z,11.48
2022-11-26T05:33:35.059Z,10.38
2022-11-26T05:36:01.767Z,12.85
2022-11-26T05:38:28.459Z,11.85
2022-11-26T05:40:55.177Z,8.48
2022-11-26T05:43:21.942Z,11.38
2022-11-26T05:45:48.820Z,8.20
2022-11-26T05:48:15.449Z,10.10
2022-11-26T05:50:42.089Z,12.18
2022-11-26T05:53:08.695Z,9.90
2022-11-26T05:55:35.363Z,12.68
2022-11-26T05:58:02.048Z,13.60
2022-11-26T06:00:28.664Z,9.63
2022-11-26T06:02:55.388Z,13.07
2022-11-26T06:05:22.265Z,10.48
2022-11-26T06:07:48.983Z,16.23
2022-11-26T06:10:15.668Z,14.73
2022-11-26T06:12:42.329Z,11.90
2022-11-26T06:15:09.485Z,13.25
2022-11-26T06:17:36.109Z,12.85
2022-11-26T06:20:02.891Z,11.35
2022-11-26T06:22:29.670Z,11.57
2022-11-26T06:24:56.292Z,10.75
2022-11-26T06:27:22.900Z,11.27
2022-11-26T06:29:49.565Z,15.82
2022-11-26T06:32:16.133Z,10.82
2022-11-26T06:34:44.270Z,16.55
2022-11-26T06:37:11.401Z,9.57
2022-11-26T06:39:37.978Z,12.07
2022-11-26T06:42:04.727Z,11.40
2022-11-26T06:44:31.389Z,12.20
2022-11-26T06:46:57.981Z,9.27
2022-11-26T06:49:24.591Z,10.32
2022-11-26T06:51:51.224Z,12.60
2022-11-26T06:54:17.836Z,14.23
2022-11-26T06:56:44.563Z,11.25
2022-11-26T06:59:11.243Z,12.77
2022-11-26T07:01:38.286Z,15.65
2022-11-26T07:04:05.129Z,11.48
2022-11-26T07:06:33.203Z,10.85
2022-11-26T07:09:04.427Z,17.05
2022-11-26T07:11:33.528Z,13.98
2022-11-26T07:14:01.442Z,11.73
2022-11-26T07:16:28.914Z,13.18
2022-11-26T07:19:02.381Z,13.73
2022-11-26T07:21:29.832Z,13.73
2022-11-26T07:23:56.667Z,13.43
2022-11-26T07:26:23.504Z,13.77
2022-11-26T07:28:50.858Z,11.90
2022-11-26T07:31:21.034Z,10.73
2022-11-26T07:33:48.937Z,12.50
2022-11-26T07:36:24.369Z,13.38
2022-11-26T07:38:53.212Z,16.50
2022-11-26T07:41:20.258Z,14.00
2022-11-26T07:43:47.491Z,12.60
2022-11-26T07:46:17.560Z,12.93
2022-11-26T07:48:45.294Z,11.68
2022-11-26T07:51:27.544Z,13.30
2022-11-26T07:53:55.041Z,12.98
2022-11-26T07:56:22.197Z,16.05
2022-11-26T07:58:48.969Z,14.43
2022-11-26T08:01:18.457Z,14.88
2022-11-26T08:03:47.929Z,14.63
2022-11-26T08:06:17.260Z,17.85
2022-11-26T08:08:44.241Z,14.00
2022-11-26T08:11:14.392Z,14.20
2022-11-26T08:13:41.890Z,16.83
2022-11-26T08:16:09.221Z,14.40
2022-11-26T08:18:36.424Z,14.18
2022-11-26T08:21:03.466Z,14.02
2022-11-26T08:23:31.285Z,13.60
2022-11-26T08:26:21.532Z,18.40
2022-11-26T08:28:46.445Z,15.25
2022-11-26T08:31:15.034Z,15.40
2022-11-26T08:33:42.127Z,19.88
2022-11-26T08:36:09.890Z,18.67
2022-11-26T08:38:37.097Z,17.95
2022-11-26T08:41:10.121Z,16.95
2022-11-26T08:44:04.557Z,22.05
2022-11-26T08:46:25.594Z,19.88
2022-11-26T08:48:54.462Z,24.10
2022-11-26T08:51:21.097Z,23.63
2022-11-26T08:53:47.830Z,20.95
2022-11-26T08:56:14.657Z,37.55
2022-11-26T08:58:44.125Z,24.40
2022-11-26T09:01:12.267Z,22.08
2022-11-26T09:03:39.355Z,22.13
2022-11-26T09:06:07.356Z,44.35
2022-11-26T09:08:56.648Z,21.88
2022-11-26T09:11:24.064Z,29.95
2022-11-26T09:13:50.758Z,45.38
2022-11-26T09:16:17.590Z,39.78
2022-11-26T09:18:44.475Z,34.92
2022-11-26T09:21:11.037Z,33.50
2022-11-26T09:23:37.611Z,42.58
2022-11-26T09:26:04.511Z,22.60
2022-11-26T09:28:31.147Z,70.05
2022-11-26T09:31:01.314Z,25.38
2022-11-26T09:33:29.175Z,18.17
2022-11-26T09:36:04.739Z,24.23
2022-11-26T09:38:31.361Z,22.00
2022-11-26T09:41:29.579Z,20.45
2022-11-26T09:44:11.164Z,23.45
2022-11-26T09:47:12.201Z,16.60
2022-11-26T09:50:11.309Z,20.08
2022-11-26T09:52:47.179Z,23.45
2022-11-26T09:55:34.339Z,22.73
2022-11-26T09:58:38.397Z,22.50
2022-11-26T10:01:06.980Z,20.30
2022-11-26T10:03:36.408Z,22.40
2022-11-26T10:06:51.493Z,21.92
2022-11-26T10:09:21.190Z,24.65
2022-11-26T10:12:03.593Z,21.83
2022-11-26T10:14:48.633Z,23.02
2022-11-26T10:17:34.109Z,26.58
2022-11-26T10:20:00.747Z,20.98
2022-11-26T10:22:37.553Z,24.65
2022-11-26T10:25:14.890Z,19.25
2022-11-26T10:27:42.325Z,22.02
2022-11-26T10:30:30.010Z,22.23
2022-11-26T10:33:00.758Z,25.35
2022-11-26T10:35:29.595Z,22.27
2022-11-26T10:37:57.957Z,25.30
2022-11-26T10:40:30.020Z,20.05
2022-11-26T10:43:08.727Z,18.75
2022-11-26T10:45:48.108Z,20.70
2022-11-26T10:48:32.977Z,20.52
2022-11-26T10:51:13.603Z,22.80
2022-11-26T10:53:59.004Z,22.20
2022-11-26T10:56:31.896Z,24.05
2022-11-26T10:59:03.694Z,18.83
2022-11-26T11:01:37.383Z,22.88
2022-11-26T11:04:24.424Z,19.92
2022-11-26T11:06:51.326Z,20.63
2022-11-26T11:09:35.030Z,24.40
2022-11-26T11:12:10.626Z,17.42
2022-11-26T11:14:42.365Z,17.63
2022-11-26T11:19:48.541Z,16.55
2022-11-26T11:22:20.521Z,16.13
2022-11-26T11:24:48.099Z,15.88
2022-11-26T11:27:37.233Z,17.10
2022-11-26T11:30:04.219Z,17.55
2022-11-26T11:32:40.334Z,16.65
2022-11-26T11:35:33.358Z,19.20
2022-11-26T11:38:00.126Z,15.73
2022-11-26T11:40:30.517Z,17.38
2022-11-26T11:43:04.449Z,14.40
2022-11-26T11:45:41.379Z,19.02
2022-11-26T11:48:36.093Z,22.08
2022-11-26T11:51:33.825Z,19.73
2022-11-26T11:54:27.629Z,17.30
2022-11-26T11:57:40.621Z,20.98
2022-11-26T12:00:16.539Z,20.75
2022-11-26T12:03:05.013Z,24.63
2022-11-26T12:05:53.565Z,22.60
2022-11-26T12:08:56.185Z,23.50
2022-11-26T12:11:50.334Z,21.50
2022-11-26T12:14:26.050Z,23.48
2022-11-26T12:17:18.463Z,17.63
2022-11-26T12:19:50.401Z,24.52
2022-11-26T12:22:30.447Z,25.73
2022-11-26T12:25:02.950Z,23.75
2022-11-26T12:27:53.231Z,23.48
2022-11-26T12:30:22.850Z,24.35
2022-11-26T12:33:16.903Z,22.88
2022-11-26T12:35:50.769Z,26.88
2022-11-26T12:38:30.078Z,19.63
2022-11-26T12:41:07.742Z,20.95
2022-11-26T12:43:59.017Z,18.95
2022-11-26T12:46:48.762Z,22.75
2022-11-26T12:49:44.795Z,19.50
2022-11-26T12:52:18.047Z,20.48
2022-11-26T12:54:56.628Z,22.05
2022-11-26T12:57:39.634Z,17.63
2022-11-26T13:00:15.709Z,18.30
2022-11-26T13:02:45.694Z,23.00
2022-11-26T13:05:18.920Z,23.70
2022-11-26T13:08:16.514Z,21.58
2022-11-26T13:11:23.301Z,20.08
2022-11-26T13:14:26.420Z,22.52
2022-11-26T13:17:03.995Z,20.23
2022-11-26T13:19:55.726Z,22.50
2022-11-26T13:22:44.095Z,22.38
2022-11-26T13:25:26.050Z,22.45
2022-11-26T13:28:22.964Z,19.85
2022-11-26T13:31:07.207Z,24.80
2022-11-26T13:33:53.948Z,20.88
2022-11-26T13:36:57.975Z,25.75
2022-11-26T13:39:53.069Z,28.50
2022-11-26T13:42:43.674Z,20.75
2022-11-26T13:45:16.252Z,23.95
2022-11-26T13:48:01.758Z,21.98
2022-11-26T13:50:44.346Z,21.00
2022-11-26T13:53:29.665Z,23.48
2022-11-26T13:59:12.809Z,18.63
2022-11-26T14:01:41.162Z,22.90
2022-11-26T14:04:11.118Z,22.23
2022-11-26T14:06:38.162Z,21.67
2022-11-26T14:09:05.818Z,18.95
2022-11-26T14:11:41.622Z,23.92
2022-11-26T14:14:26.409Z,20.25
2022-11-26T14:17:02.417Z,15.52
2022-11-26T14:19:41.488Z,16.77
2022-11-26T14:24:50.002Z,19.65
2022-11-26T14:27:41.047Z,15.57
2022-11-26T14:30:11.245Z,17.85
2022-11-26T14:32:39.976Z,16.55
2022-11-26T14:35:34.751Z,18.08
2022-11-26T14:38:04.569Z,16.83
2022-11-26T14:40:38.407Z,20.17
2022-11-26T14:43:19.525Z,19.38
2022-11-26T14:45:49.328Z,20.40
2022-11-26T14:48:27.473Z,19.02
2022-11-26T14:50:56.831Z,24.90
2022-11-26T14:53:27.773Z,18.20
2022-11-26T14:55:54.835Z,20.60
2022-11-26T14:58:31.228Z,18.73
2022-11-26T15:01:24.846Z,24.20
2022-11-26T15:04:03.735Z,20.30
2022-11-26T15:06:39.355Z,21.63
2022-11-26T15:09:15.545Z,21.80
2022-11-26T15:11:48.254Z,23.40
2022-11-26T15:17:00.356Z,19.35
2022-11-26T15:19:30.634Z,20.83
2022-11-26T15:21:57.704Z,20.00
2022-11-26T15:24:24.683Z,18.40
2022-11-26T15:26:53.469Z,22.83
2022-11-26T15:29:31.238Z,20.27
2022-11-26T15:31:58.325Z,22.38
2022-11-26T15:34:26.497Z,24.17
2022-11-26T15:36:53.287Z,24.60
2022-11-26T15:39:32.255Z,25.80
2022-11-26T15:44:30.448Z,23.13
2022-11-26T15:47:00.276Z,22.63
2022-11-26T15:49:33.730Z,23.17
2022-11-26T15:52:10.942Z,22.95
2022-11-26T15:55:11.287Z,24.67
2022-11-26T15:57:40.649Z,23.58
2022-11-26T16:00:28.772Z,20.92
2022-11-26T16:02:55.425Z,22.88
2022-11-26T16:05:29.636Z,22.27
2022-11-26T16:07:57.904Z,24.15
2022-11-26T16:10:28.028Z,24.67
2022-11-26T16:13:07.341Z,19.70
2022-11-26T16:15:34.533Z,22.15
2022-11-26T16:18:04.665Z,21.33
2022-11-26T16:20:31.550Z,22.73
2022-11-26T16:22:59.961Z,25.02
2022-11-26T16:25:30.264Z,21.88
2022-11-26T16:28:11.747Z,21.98
2022-11-26T16:30:40.057Z,22.00
2022-11-26T16:33:10.561Z,21.70
2022-11-26T16:35:46.868Z,19.98
2022-11-26T16:38:22.198Z,22.77
2022-11-26T16:40:49.914Z,25.48
2022-11-26T16:43:16.743Z,25.55
2022-11-26T16:45:43.820Z,22.30
2022-11-26T16:48:28.818Z,24.15
2022-11-26T16:50:56.521Z,24.52
2022-11-26T16:53:23.518Z,27.70
2022-11-26T16:55:50.971Z,19.45
2022-11-26T16:58:28.223Z,21.45
2022-11-26T17:00:56.912Z,21.75
2022-11-26T17:03:28.312Z,22.75
2022-11-26T17:05:58.518Z,25.05
2022-11-26T17:08:25.360Z,25.15
2022-11-26T17:10:54.093Z,26.40
2022-11-26T17:13:20.878Z,25.98
2022-11-26T17:15:49.039Z,31.85
2022-11-26T17:18:25.167Z,27.63
2022-11-26T17:20:54.581Z,32.42
2022-11-26T17:23:23.128Z,30.95
2022-11-26T17:25:52.498Z,26.73
2022-11-26T17:28:20.936Z,30.65
2022-11-26T17:30:47.587Z,25.77
2022-11-26T17:33:14.243Z,31.08
2022-11-26T17:35:41.070Z,29.83
2022-11-26T17:38:19.237Z,29.70
2022-11-26T17:40:46.692Z,28.98
2022-11-26T17:43:13.677Z,30.40
2022-11-26T17:45:41.277Z,30.23
2022-11-26T17:48:13.152Z,28.15
2022-11-26T17:50:40.524Z,23.95
2022-11-26T17:53:07.155Z,28.55
2022-11-26T17:55:33.890Z,26.25
2022-11-26T17:58:00.625Z,27.48
2022-11-26T18:00:28.683Z,24.90
2022-11-26T18:02:55.590Z,25.05
2022-11-26T18:05:22.827Z,24.63
2022-11-26T18:07:52.484Z,24.88
2022-11-26T18:10:21.333Z,22.17
2022-11-26T18:12:48.740Z,26.10
2022-11-26T18:15:24.091Z,25.60
2022-11-26T18:17:53.369Z,25.30
2022-11-26T18:20:22.877Z,23.60
2022-11-26T18:22:51.670Z,23.60
2022-11-26T18:25:18.675Z,22.58
2022-11-26T18:27:45.293Z,21.92
2022-11-26T18:30:12.598Z,24.33
2022-11-26T18:32:39.722Z,25.92
2022-11-26T18:35:07.241Z,26.48
2022-11-26T18:37:35.172Z,25.95
2022-11-26T18:40:02.485Z,25.17
2022-11-26T18:42:37.031Z,26.58
2022-11-26T18:45:10.179Z,21.92
2022-11-26T18:47:37.472Z,22.02
2022-11-26T18:50:04.573Z,22.80
2022-11-26T18:52:31.237Z,21.40
2022-11-26T18:54:58.073Z,22.48
2022-11-26T18:57:24.709Z,27.65
2022-11-26T18:59:51.440Z,22.05
2022-11-26T19:02:18.169Z,24.48
2022-11-26T19:04:44.916Z,25.70
2022-11-26T19:07:12.725Z,25.73
2022-11-26T19:09:39.657Z,20.88
2022-11-26T19:12:06.782Z,26.42
2022-11-26T19:14:33.434Z,24.20
2022-11-26T19:17:00.605Z,23.35
2022-11-26T19:19:28.121Z,21.17
2022-11-26T19:22:00.768Z,20.20
2022-11-26T19:24:28.624Z,20.13
2022-11-26T19:26:55.329Z,19.52
2022-11-26T19:29:22.013Z,17.80
2022-11-26T19:31:48.684Z,21.98
2022-11-26T19:34:16.255Z,20.77
2022-11-26T19:36:47.977Z,20.15
2022-11-26T19:39:15.863Z,20.23
2022-11-26T19:41:42.525Z,17.73
2022-11-26T19:44:09.230Z,19.48
2022-11-26T19:46:39.144Z,18.20
2022-11-26T19:49:06.243Z,21.88
2022-11-26T19:51:32.884Z,19.77
2022-11-26T19:53:59.534Z,18.25
2022-11-26T19:56:30.275Z,20.23
2022-11-26T19:58:58.573Z,18.70
2022-11-26T20:01:27.200Z,19.88
2022-11-26T20:03:54.021Z,20.33
2022-11-26T20:06:28.506Z,15.27
2022-11-26T20:08:56.290Z,17.35
2022-11-26T20:11:23.006Z,16.60
2022-11-26T20:13:50.457Z,18.45
2022-11-26T20:16:28.430Z,13.32
2022-11-26T20:18:55.879Z,15.27
2022-11-26T20:21:25.979Z,17.77
2022-11-26T20:23:54.252Z,16.50
2022-11-26T20:26:29.051Z,15.07
2022-11-26T20:29:00.897Z,15.85
2022-11-26T20:31:28.177Z,14.30
2022-11-26T20:33:55.767Z,17.42
2022-11-26T20:36:23.427Z,17.98
2022-11-26T20:38:58.338Z,17.27
2022-11-26T20:41:29.140Z,16.15
2022-11-26T20:43:59.382Z,17.75
2022-11-26T20:46:27.820Z,14.80
2022-11-26T20:48:54.898Z,14.25
2022-11-26T20:51:22.364Z,20.10
2022-11-26T20:53:50.790Z,17.70
2022-11-26T20:56:19.580Z,19.67
2022-11-26T20:58:46.514Z,16.80
2022-11-26T21:01:19.420Z,17.13
2022-11-26T21:03:46.370Z,16.23
2022-11-26T21:06:17.774Z,16.75
2022-11-26T21:08:44.865Z,19.15
2022-11-26T21:11:12.289Z,17.92
2022-11-26T21:13:39.626Z,17.45
2022-11-26T21:16:09.177Z,14.77
2022-11-26T21:18:35.869Z,16.05
2022-11-26T21:21:09.812Z,13.73
2022-11-26T21:23:39.919Z,15.35
2022-11-26T21:26:12.429Z,19.13
2022-11-26T21:28:39.111Z,16.02
2022-11-26T21:31:13.309Z,15.40
2022-11-26T21:33:40.199Z,16.02
2022-11-26T21:36:08.796Z,19.10
2022-11-26T21:38:37.594Z,21.05
2022-11-26T21:41:06.136Z,18.33
2022-11-26T21:43:32.821Z,21.85
2022-11-26T21:46:07.035Z,19.08
2022-11-26T21:48:35.597Z,19.50
2022-11-26T21:51:10.587Z,23.42
2022-11-26T21:56:23.452Z,20.88
2022-11-26T21:58:50.789Z,22.83
2022-11-26T22:01:27.331Z,26.75
2022-11-26T22:03:56.314Z,21.85
2022-11-26T22:06:24.177Z,21.58
2022-11-26T22:08:51.855Z,24.20
2022-11-26T22:11:28.792Z,25.63
2022-11-26T22:13:56.034Z,25.75
2022-11-26T22:16:24.692Z,22.38
2022-11-26T22:18:52.686Z,23.88
2022-11-26T22:21:21.669Z,24.42
2022-11-26T22:23:49.064Z,21.20
2022-11-26T22:26:15.931Z,21.65
2022-11-26T22:28:42.949Z,24.48
2022-11-26T22:31:16.788Z,21.02
2022-11-26T22:33:43.708Z,23.33
2022-11-26T22:36:10.622Z,21.80
2022-11-26T22:38:38.562Z,24.00
2022-11-26T22:41:07.739Z,19.60
2022-11-26T22:43:34.416Z,26.30
2022-11-26T22:46:05.812Z,23.83
2022-11-26T22:48:33.668Z,27.50
2022-11-26T22:51:00.345Z,25.98
2022-11-26T22:53:27.006Z,24.58
2022-11-26T22:55:59.048Z,21.88
2022-11-26T22:58:27.253Z,21.95
2022-11-26T23:00:56.626Z,20.75
2022-11-26T23:03:24.851Z,23.05
2022-11-26T23:05:51.775Z,16.92
2022-11-26T23:08:19.497Z,15.90
2022-11-26T23:10:48.349Z,15.90
2022-11-26T23:13:16.262Z,14.95
2022-11-26T23:15:45.069Z,18.00
2022-11-26T23:18:13.883Z,15.45
2022-11-26T23:20:41.018Z,17.50
2022-11-26T23:23:07.708Z,17.17
2022-11-26T23:25:38.769Z,16.02
2022-11-26T23:28:06.490Z,15.63
2022-11-26T23:30:33.620Z,19.55
2022-11-26T23:33:00.266Z,17.35
2022-11-26T23:35:26.991Z,17.45
2022-11-26T23:37:53.565Z,15.15
2022-11-26T23:40:20.157Z,15.68
2022-11-26T23:42:46.742Z,15.07
2022-11-26T23:45:13.332Z,17.15
2022-11-26T23:47:40.313Z,17.63
2022-11-26T23:50:07.970Z,18.15
2022-11-26T23:52:34.800Z,16.55
2022-11-26T23:55:01.429Z,22.52
2022-11-26T23:57:28.035Z,20.58
2022-11-26T23:59:54.619Z,19.50
